Weather at Dunkeswell Airport

Public forecast

Using degrees Celsius for public forecast. Weather courtesy of forecast.io.

Closest aviation weather report (METAR) to Dunkeswell Airport

Report is more than 2 hours old.

Closest report is Exeter International Airport, 10.2 nm (18.8 km) SW. Retrieved 2021/05/11 01:20 UTC (4 hours ago):

EGTE 110120Z 15006KT CAVOK 07/06 Q1004

Closest aviation forecast (TAF) to Dunkeswell Airport

Forecast is more than 12 hours old.

Closest forecast is Exeter International Airport, 10.2 nm (18.8 km) SW. Retrieved 2012/04/19 12:15 UTC (9 years ago):

TAF TAF EGTE 191401Z 1912/1924 31016KT 9999 SCT030 SCT035 PROB40 TEMPO 1915/1918 7000 SHRA BKN014